Time;durP1;ratioP1;P1;durP2;ratioP2;P2;SDS_P1;SDS_P2;PMS_P1;PMS_P2;Temp;Humidity;BMP_temperature;BMP_pressure;BME280_temperature;BME280_humidity;BME280_pressure;Samples;Min_cycle;Max_cycle;Signal;HPM_P1;HPM_P2
2021/12/18 00:00:55;;;;;;;1.30;1.30;;;4.90;75.90;4.10;100254.00;;;;5116474;28;20186;-73
2021/12/18 00:03:24;;;;;;;3.47;1.73;;;4.90;75.90;4.10;100253.00;;;;5116429;28;20292;-72
2021/12/18 00:05:50;;;;;;;1.87;1.77;;;4.90;76.40;4.20;100264.00;;;;5116381;28;20206;-73
2021/12/18 00:08:17;;;;;;;1.10;1.10;;;4.90;76.40;4.20;100260.00;;;;5116410;28;20199;-73
2021/12/18 00:10:45;;;;;;;1.17;1.17;;;4.90;76.40;4.10;100264.00;;;;5116206;28;20308;-75
2021/12/18 00:13:11;;;;;;;2.70;2.50;;;4.90;76.50;4.20;100258.00;;;;5098528;28;20494;-74
2021/12/18 00:15:39;;;;;;;4.03;2.63;;;5.00;76.30;4.10;100262.00;;;;5116153;28;20308;-73
2021/12/18 00:18:05;;;;;;;3.60;2.33;;;4.90;76.30;4.00;100267.00;;;;5116229;28;20652;-73
2021/12/18 00:20:32;;;;;;;2.23;2.03;;;4.90;76.50;4.10;100268.00;;;;5116321;28;20614;-73
2021/12/18 00:22:58;;;;;;;2.00;1.43;;;4.90;76.50;4.10;100269.00;;;;5098281;28;20229;-72
2021/12/18 00:25:25;;;;;;;2.00;1.90;;;4.90;76.20;4.20;100260.00;;;;5115926;28;20276;-74
2021/12/18 00:27:52;;;;;;;1.83;1.73;;;4.90;76.40;4.10;100262.00;;;;5116304;28;20278;-73
2021/12/18 00:30:22;;;;;;;2.93;2.53;;;4.90;76.40;4.10;100263.00;;;;5116145;28;20193;-73
2021/12/18 00:32:49;;;;;;;2.37;2.27;;;4.90;76.40;4.10;100261.00;;;;5116073;28;20255;-73
2021/12/18 00:35:18;;;;;;;1.67;1.57;;;4.90;76.50;4.10;100266.00;;;;5115857;28;20574;-73
2021/12/18 00:37:45;;;;;;;2.00;1.90;;;4.90;77.70;4.10;100264.00;;;;5097987;28;20281;-72
2021/12/18 00:40:19;;;;;;;2.77;2.57;;;4.90;76.60;4.00;100262.00;;;;5097659;28;20280;-75
2021/12/18 00:42:49;;;;;;;2.90;2.70;;;4.90;76.40;4.10;100267.00;;;;5115813;28;20204;-73
2021/12/18 00:45:18;;;;;;;1.17;1.07;;;4.90;75.90;4.00;100262.00;;;;5115839;28;20194;-73
2021/12/18 00:47:47;;;;;;;1.63;1.53;;;4.80;75.80;4.00;100262.00;;;;5115520;28;20217;-73
2021/12/18 00:50:19;;;;;;;2.27;1.87;;;4.80;75.90;3.90;100263.00;;;;5115669;28;20513;-73
2021/12/18 00:52:49;;;;;;;2.37;1.47;;;4.80;75.90;4.00;100259.00;;;;5115553;28;20233;-73
2021/12/18 00:55:19;;;;;;;2.00;1.90;;;4.80;76.40;4.00;100266.00;;;;5115561;28;20629;-74
2021/12/18 00:57:46;;;;;;;2.20;2.07;;;4.80;77.00;4.00;100261.00;;;;5115606;28;20222;-73
2021/12/18 01:00:23;;;;;;;1.33;1.30;;;4.80;76.20;3.90;100255.00;;;;5097605;28;20198;-74
2021/12/18 01:02:59;;;;;;;1.80;1.60;;;4.80;76.10;3.90;100253.00;;;;5115614;28;20194;-74
2021/12/18 01:05:28;;;;;;;4.73;1.97;;;4.80;76.40;3.90;100261.00;;;;5115427;28;20221;-74
2021/12/18 01:07:58;;;;;;;2.33;2.13;;;4.80;76.40;3.90;100262.00;;;;5115612;28;20224;-74
2021/12/18 01:10:41;;;;;;;1.60;1.50;;;4.70;76.50;4.10;100270.00;;;;5115376;28;20194;-72
2021/12/18 01:13:15;;;;;;;3.60;2.63;;;4.80;76.30;4.00;100264.00;;;;5115405;28;20226;-75
2021/12/18 01:15:46;;;;;;;1.30;1.30;;;4.80;76.10;3.90;100257.00;;;;5097535;28;20198;-73
2021/12/18 01:23:43;;;;;;;2.00;1.70;;;4.80;76.30;3.90;100261.00;;;;5115228;28;20308;-74
2021/12/18 01:26:10;;;;;;;1.70;1.67;;;4.70;76.10;3.80;100260.00;;;;5115199;28;20485;-73
2021/12/18 01:28:39;;;;;;;2.27;2.17;;;4.70;76.50;3.80;100265.00;;;;5115170;28;20190;-73
2021/12/18 01:31:09;;;;;;;3.87;2.27;;;4.70;76.80;3.90;100262.00;;;;5115440;28;20190;-73
2021/12/18 01:33:36;;;;;;;1.80;1.70;;;4.70;77.20;3.90;100267.00;;;;5097341;28;20609;-73
2021/12/18 01:36:04;;;;;;;2.80;2.60;;;4.70;77.00;3.90;100264.00;;;;5114161;28;20218;-73
2021/12/18 01:38:33;;;;;;;1.80;1.70;;;4.70;77.10;3.90;100237.00;;;;5115167;28;20201;-74
2021/12/18 01:41:02;;;;;;;3.33;2.33;;;4.70;76.90;3.80;100275.00;;;;5114912;28;20222;-73
2021/12/18 01:46:34;;;;;;;2.63;2.00;;;4.60;78.00;3.80;100262.00;;;;5115035;28;20651;-73
2021/12/18 01:52:02;;;;;;;3.23;2.63;;;4.60;77.40;3.90;100260.00;;;;5114784;28;20258;-74
2021/12/18 01:54:29;;;;;;;2.80;2.57;;;4.60;77.60;3.70;100261.00;;;;5114739;28;20660;-74
2021/12/18 01:56:56;;;;;;;2.13;1.40;;;4.60;77.20;3.80;100270.00;;;;5114761;28;20190;-74
2021/12/18 01:59:35;;;;;;;2.27;2.13;;;4.60;77.30;3.70;100241.00;;;;5114494;28;20533;-75
2021/12/18 02:02:04;;;;;;;3.83;1.73;;;4.60;77.40;3.80;100276.00;;;;5114715;28;20624;-72
2021/12/18 02:04:33;;;;;;;2.03;1.83;;;4.60;77.50;3.80;100270.00;;;;5114597;28;20219;-71
2021/12/18 02:07:07;;;;;;;1.87;1.77;;;4.60;77.20;3.70;100268.00;;;;5114511;28;20290;-73
2021/12/18 02:09:51;;;;;;;2.20;2.10;;;4.60;76.70;3.70;100275.00;;;;5096796;28;20236;-72
2021/12/18 02:12:19;;;;;;;3.00;2.77;;;4.50;76.80;3.70;100265.00;;;;5114295;28;20225;-75
2021/12/18 02:20:25;;;;;;;2.13;2.03;;;4.40;77.10;3.90;100263.00;;;;5114349;28;20205;-73
2021/12/18 02:22:54;;;;;;;2.80;1.63;;;4.60;76.30;3.70;100256.00;;;;5114319;28;20270;-73
2021/12/18 02:25:24;;;;;;;4.80;2.83;;;4.50;76.10;3.60;100267.00;;;;5114278;28;20205;-73
2021/12/18 02:27:55;;;;;;;1.90;1.80;;;4.50;76.20;3.60;100257.00;;;;5114274;28;20517;-73
2021/12/18 02:30:22;;;;;;;5.60;2.93;;;4.40;76.80;3.60;100256.00;;;;5114072;28;20237;-73
2021/12/18 02:32:49;;;;;;;1.67;1.67;;;4.40;77.10;3.60;100263.00;;;;5114384;28;20242;-74
2021/12/18 02:35:35;;;;;;;2.40;1.87;;;4.40;77.00;3.30;100264.00;;;;5114191;28;20504;-73
2021/12/18 02:38:08;;;;;;;1.70;1.60;;;4.30;76.50;3.30;100264.00;;;;5114279;28;20206;-73
2021/12/18 02:40:54;;;;;;;1.10;1.10;;;4.20;76.50;3.20;100266.00;;;;5114105;28;20202;-73
2021/12/18 02:43:24;;;;;;;2.83;2.63;;;4.10;77.10;3.10;100266.00;;;;5114142;28;20724;-73
2021/12/18 02:45:54;;;;;;;1.77;1.67;;;4.10;77.20;3.20;100266.00;;;;5114135;28;20194;-73
2021/12/18 02:48:21;;;;;;;3.47;2.20;;;4.10;77.40;3.30;100269.00;;;;5116817;28;20208;-73
2021/12/18 02:50:48;;;;;;;1.80;1.70;;;4.10;77.70;3.20;100265.00;;;;5117711;28;20605;-74
2021/12/18 02:53:17;;;;;;;3.20;2.37;;;4.10;77.60;3.20;100266.00;;;;5117652;28;20669;-74
2021/12/18 02:55:44;;;;;;;3.30;2.30;;;4.10;77.70;3.30;100270.00;;;;5117692;28;20308;-73
2021/12/18 02:58:11;;;;;;;2.43;2.10;;;4.20;77.70;3.30;100261.00;;;;5099694;28;20198;-73
2021/12/18 03:00:38;;;;;;;1.87;1.77;;;4.10;77.60;3.30;100256.00;;;;5117507;28;20731;-73
2021/12/18 03:03:09;;;;;;;1.63;1.53;;;4.10;77.90;3.30;100214.00;;;;5099762;28;20737;-73
2021/12/18 03:05:43;;;;;;;2.70;2.60;;;4.10;77.90;3.30;100263.00;;;;5099710;28;20515;-73
2021/12/18 03:08:17;;;;;;;1.00;1.00;;;4.10;78.10;3.30;100256.00;;;;5117341;28;20304;-73
2021/12/18 03:19:54;;;;;;;1.93;1.67;;;4.10;78.30;3.20;100250.00;;;;5117098;28;20170;-73
2021/12/18 03:24:59;;;;;;;1.57;1.47;;;4.10;78.80;3.20;100263.00;;;;5117126;28;20214;-73
2021/12/18 03:27:29;;;;;;;1.77;1.67;;;4.00;78.40;3.10;100253.00;;;;5117077;28;20202;-73
2021/12/18 03:29:56;;;;;;;2.40;2.23;;;4.00;77.70;3.00;100254.00;;;;5116920;28;20524;-73
2021/12/18 03:32:23;;;;;;;2.47;2.27;;;4.00;78.10;3.10;100262.00;;;;5116671;28;20234;-73
2021/12/18 03:34:51;;;;;;;3.13;2.30;;;4.00;78.30;3.20;100265.00;;;;5116846;28;20285;-73
2021/12/18 03:37:19;;;;;;;3.63;2.33;;;4.00;78.40;3.20;100259.00;;;;5116717;28;20188;-73
2021/12/18 03:39:47;;;;;;;2.30;2.20;;;4.00;78.40;3.10;100238.00;;;;5116888;28;20205;-73
2021/12/18 03:42:15;;;;;;;2.37;2.20;;;4.00;78.20;3.10;100257.00;;;;5116741;28;20212;-71
2021/12/18 03:44:42;;;;;;;2.20;2.10;;;4.00;78.50;3.20;100252.00;;;;5116676;28;20232;-73
2021/12/18 03:47:08;;;;;;;3.40;2.97;;;4.00;78.70;3.20;100251.00;;;;5116737;28;20212;-73
2021/12/18 03:49:38;;;;;;;2.10;2.00;;;4.00;78.60;3.20;100216.00;;;;5116597;28;20213;-74
2021/12/18 03:52:05;;;;;;;2.80;2.60;;;4.00;78.30;3.20;100256.00;;;;5098711;28;20256;-73
2021/12/18 03:54:33;;;;;;;1.67;1.57;;;4.00;78.30;3.10;100250.00;;;;5116583;28;20197;-73
2021/12/18 03:57:01;;;;;;;4.83;2.60;;;4.00;78.20;3.10;100240.00;;;;5116404;28;20323;-73
2021/12/18 03:59:28;;;;;;;3.53;3.20;;;4.00;78.50;3.20;100253.00;;;;5115896;28;20213;-74
2021/12/18 04:01:54;;;;;;;2.07;1.90;;;4.00;78.40;3.30;100240.00;;;;5116527;28;20306;-73
2021/12/18 04:04:21;;;;;;;2.33;2.20;;;4.10;78.30;3.10;100239.00;;;;5116779;28;20226;-73
2021/12/18 04:06:48;;;;;;;2.93;2.57;;;4.00;77.30;2.90;100245.00;;;;5098549;28;20257;-73
2021/12/18 04:09:15;;;;;;;1.83;1.73;;;3.90;77.80;2.90;100242.00;;;;5098458;28;20375;-73
2021/12/18 04:11:42;;;;;;;2.13;1.93;;;3.90;78.10;2.90;100251.00;;;;5116596;28;20245;-73
2021/12/18 04:14:12;;;;;;;1.67;1.57;;;3.80;78.50;2.80;100249.00;;;;5116361;28;20290;-75
2021/12/18 04:16:39;;;;;;;4.03;2.30;;;3.80;78.70;3.10;100240.00;;;;5116459;28;20603;-73
2021/12/18 04:19:08;;;;;;;1.70;1.60;;;3.80;78.80;3.20;100244.00;;;;5116312;28;20193;-73
2021/12/18 04:21:35;;;;;;;2.40;2.30;;;3.90;78.90;3.10;100249.00;;;;5116182;28;20304;-73
2021/12/18 04:24:03;;;;;;;2.43;2.33;;;3.90;78.70;3.00;100246.00;;;;5116493;28;20212;-73
2021/12/18 04:26:30;;;;;;;2.13;2.03;;;3.90;79.00;3.00;100245.00;;;;5116102;28;20271;-74
2021/12/18 04:28:57;;;;;;;2.47;2.27;;;3.80;79.20;3.00;100241.00;;;;5116185;28;20213;-73
2021/12/18 04:31:24;;;;;;;2.50;2.37;;;3.90;80.40;3.10;100235.00;;;;5116163;28;20247;-74
2021/12/18 04:33:51;;;;;;;2.37;2.27;;;3.90;79.60;3.00;100231.00;;;;5116020;28;20300;-73
2021/12/18 04:36:21;;;;;;;5.70;2.03;;;3.90;79.40;3.10;100235.00;;;;5116380;28;20533;-73
2021/12/18 04:38:50;;;;;;;1.70;1.60;;;3.90;79.70;3.10;100241.00;;;;5097996;28;20294;-73
2021/12/18 04:41:22;;;;;;;2.07;1.97;;;3.90;79.70;3.00;100233.00;;;;5115972;28;20216;-73
2021/12/18 04:43:50;;;;;;;1.97;1.87;;;3.90;80.20;3.00;100225.00;;;;5115930;28;20251;-73
2021/12/18 04:46:17;;;;;;;2.50;2.30;;;3.90;79.20;3.10;100234.00;;;;5115797;28;20225;-72
2021/12/18 04:48:45;;;;;;;2.33;2.23;;;3.90;79.10;3.00;100235.00;;;;5115906;28;20190;-74
2021/12/18 04:51:15;;;;;;;2.30;2.13;;;3.90;79.10;3.00;100218.00;;;;5115631;28;20221;-73
2021/12/18 04:53:41;;;;;;;1.80;1.63;;;3.90;78.60;3.00;100217.00;;;;5116001;28;20218;-73
2021/12/18 04:56:10;;;;;;;3.27;1.93;;;3.90;78.70;2.90;100233.00;;;;5115726;28;20202;-74
2021/12/18 04:58:39;;;;;;;2.30;2.10;;;3.80;78.50;2.90;100228.00;;;;5115709;28;20209;-73
2021/12/18 05:01:05;;;;;;;1.00;1.00;;;3.70;78.60;3.00;100220.00;;;;5115609;28;20220;-74
2021/12/18 05:03:37;;;;;;;2.50;1.97;;;3.80;79.10;2.90;100229.00;;;;5115695;28;20225;-74
2021/12/18 05:06:04;;;;;;;1.70;1.63;;;3.70;78.60;2.90;100228.00;;;;5115580;28;20259;-74
2021/12/18 05:08:33;;;;;;;1.93;1.83;;;3.70;78.50;2.80;100230.00;;;;5115412;28;20288;-73
2021/12/18 05:11:00;;;;;;;4.17;1.97;;;3.70;78.30;2.90;100238.00;;;;5114233;28;20794;-73
2021/12/18 05:13:30;;;;;;;1.83;1.67;;;3.80;78.80;2.90;100234.00;;;;5115304;28;20224;-73
2021/12/18 05:15:56;;;;;;;2.07;1.73;;;3.70;78.90;2.80;100247.00;;;;5115223;28;20302;-74
2021/12/18 05:18:25;;;;;;;6.77;3.23;;;3.70;79.00;2.80;100242.00;;;;5115223;28;20204;-74
2021/12/18 05:20:52;;;;;;;1.97;1.87;;;3.70;79.10;2.80;100250.00;;;;5115237;28;20230;-74
2021/12/18 05:23:20;;;;;;;1.90;1.80;;;3.70;79.30;2.80;100242.00;;;;5115050;28;20197;-74
2021/12/18 05:25:48;;;;;;;1.90;1.73;;;3.60;79.40;2.70;100244.00;;;;5115228;28;20202;-74
2021/12/18 05:28:14;;;;;;;1.37;1.33;;;3.60;79.50;2.70;100243.00;;;;5115047;28;20260;-74
2021/12/18 05:30:43;;;;;;;1.43;1.33;;;3.60;79.70;2.80;100244.00;;;;5115043;28;20244;-74
2021/12/18 05:33:11;;;;;;;2.40;2.20;;;3.60;80.50;2.70;100244.00;;;;5115018;28;20300;-73
2021/12/18 05:35:40;;;;;;;2.70;2.20;;;3.60;79.70;2.70;100249.00;;;;5115096;28;20284;-73
2021/12/18 05:38:06;;;;;;;1.20;1.20;;;3.60;79.60;2.80;100245.00;;;;5115045;28;20302;-74
2021/12/18 05:40:37;;;;;;;3.70;3.40;;;3.60;79.80;2.80;100243.00;;;;5114856;28;20747;-74
2021/12/18 05:43:05;;;;;;;1.50;1.47;;;3.60;79.90;2.70;100252.00;;;;5115058;28;20182;-74
2021/12/18 05:45:32;;;;;;;1.50;1.50;;;3.60;80.00;2.70;100251.00;;;;5115034;28;20204;-74
2021/12/18 05:47:59;;;;;;;1.67;1.60;;;3.60;80.00;2.70;100256.00;;;;5115137;28;20206;-73
2021/12/18 05:50:28;;;;;;;1.67;1.57;;;3.60;80.30;2.80;100257.00;;;;5097028;28;20670;-73
2021/12/18 05:52:58;;;;;;;1.73;1.63;;;3.60;81.00;2.70;100248.00;;;;5114681;28;20308;-74
2021/12/18 05:55:25;;;;;;;2.07;1.97;;;3.60;79.60;2.70;100243.00;;;;5114770;28;20552;-74
2021/12/18 05:57:54;;;;;;;1.97;1.73;;;3.60;80.00;2.90;100247.00;;;;5096883;28;20205;-74
2021/12/18 06:00:23;;;;;;;1.70;1.60;;;3.70;80.10;2.90;100251.00;;;;5096901;28;20228;-74
2021/12/18 06:02:52;;;;;;;1.83;1.67;;;3.70;79.60;2.80;100256.00;;;;5114733;28;20212;-73
2021/12/18 06:05:21;;;;;;;1.90;1.80;;;3.60;79.70;2.80;100260.00;;;;5114451;28;20655;-73
2021/12/18 06:07:55;;;;;;;2.40;1.63;;;3.70;79.80;2.80;100260.00;;;;5114619;28;20194;-73
2021/12/18 06:10:25;;;;;;;1.83;1.73;;;3.70;80.20;2.90;100253.00;;;;5114566;28;20209;-73
2021/12/18 06:12:52;;;;;;;1.77;1.70;;;3.70;80.30;2.80;100250.00;;;;5114524;28;20226;-73
2021/12/18 06:15:22;;;;;;;0.93;0.93;;;3.70;80.00;2.80;100260.00;;;;5114556;28;20221;-74
2021/12/18 06:17:48;;;;;;;2.33;2.13;;;3.70;80.50;2.90;100254.00;;;;5114390;28;20217;-73
2021/12/18 06:20:15;;;;;;;2.50;2.30;;;3.70;80.50;2.70;100252.00;;;;5114451;28;20190;-73
2021/12/18 06:22:42;;;;;;;2.53;2.30;;;3.60;80.30;2.70;100263.00;;;;5100424;28;20304;-72
2021/12/18 06:25:09;;;;;;;1.37;1.27;;;3.60;80.80;2.80;100259.00;;;;5121315;28;20208;-74
2021/12/18 06:27:36;;;;;;;0.83;0.83;;;3.60;81.30;2.80;100265.00;;;;5121232;28;20197;-74
2021/12/18 06:30:05;;;;;;;3.00;1.47;;;3.70;81.40;2.90;100262.00;;;;5121100;28;20232;-74
2021/12/18 06:32:32;;;;;;;1.77;1.70;;;3.70;81.00;2.80;100259.00;;;;5121110;28;20304;-74
2021/12/18 06:34:59;;;;;;;1.23;1.23;;;3.70;80.80;2.90;100253.00;;;;5103311;28;20296;-74
2021/12/18 06:37:27;;;;;;;1.93;1.73;;;3.70;80.90;2.90;100266.00;;;;5103280;28;20202;-74
2021/12/18 06:39:54;;;;;;;2.00;1.67;;;3.70;80.60;2.80;100255.00;;;;5121075;28;20193;-74
2021/12/18 06:42:21;;;;;;;1.63;1.53;;;3.70;80.50;2.90;100255.00;;;;5121009;28;20214;-74
2021/12/18 06:44:50;;;;;;;0.87;0.87;;;3.70;80.40;2.70;100254.00;;;;5120972;28;20197;-74
2021/12/18 06:47:16;;;;;;;0.97;0.97;;;3.70;79.80;2.70;100255.00;;;;5120925;28;20321;-73
2021/12/18 06:49:43;;;;;;;0.90;0.90;;;3.60;79.70;2.80;100251.00;;;;5120894;28;20665;-74
2021/12/18 06:52:13;;;;;;;1.23;1.13;;;3.60;79.60;2.70;100250.00;;;;5120819;28;20222;-74
2021/12/18 06:54:41;;;;;;;1.87;1.77;;;3.60;79.50;2.70;100251.00;;;;5120763;28;20286;-73
2021/12/18 06:57:08;;;;;;;0.80;0.80;;;3.60;79.00;2.60;100254.00;;;;5120786;28;20242;-73
2021/12/18 06:59:37;;;;;;;2.90;2.70;;;3.50;79.00;2.80;100261.00;;;;5120676;28;20225;-73
2021/12/18 07:02:03;;;;;;;2.33;1.20;;;3.50;79.30;2.70;100259.00;;;;5103019;28;20216;-73
2021/12/18 07:04:30;;;;;;;1.77;1.67;;;3.60;78.70;2.70;100264.00;;;;5120959;28;20671;-73
2021/12/18 07:06:59;;;;;;;1.00;1.00;;;3.60;78.70;2.60;100265.00;;;;5120599;28;20226;-73
2021/12/18 07:09:26;;;;;;;1.73;1.63;;;3.60;78.80;2.60;100260.00;;;;5102701;28;20193;-74
2021/12/18 07:11:52;;;;;;;1.37;1.37;;;3.60;78.50;2.80;100265.00;;;;5120231;28;20680;-73
2021/12/18 07:14:21;;;;;;;1.00;1.00;;;3.60;78.10;2.60;100272.00;;;;5120837;28;20206;-73
2021/12/18 07:16:49;;;;;;;1.37;1.27;;;3.50;78.70;2.60;100275.00;;;;5120553;28;20198;-73
2021/12/18 07:19:16;;;;;;;1.50;1.40;;;3.60;78.30;2.70;100277.00;;;;5120383;28;20225;-73
2021/12/18 07:21:43;;;;;;;3.83;2.73;;;3.50;78.50;2.80;100280.00;;;;5120329;28;20300;-74
2021/12/18 07:24:10;;;;;;;2.10;1.97;;;3.60;78.50;2.90;100289.00;;;;5120417;28;20226;-73
2021/12/18 07:26:36;;;;;;;2.17;1.87;;;3.60;78.00;2.80;100280.00;;;;5102736;28;20230;-74
2021/12/18 07:29:03;;;;;;;1.80;1.67;;;3.60;78.00;2.80;100287.00;;;;5120440;28;20253;-74
2021/12/18 07:31:29;;;;;;;1.10;1.10;;;3.60;78.10;2.80;100290.00;;;;5120191;28;20245;-74
2021/12/18 07:33:56;;;;;;;1.63;1.30;;;3.70;78.40;2.80;100288.00;;;;5099799;28;20679;-73
2021/12/18 07:36:22;;;;;;;1.40;1.30;;;3.70;77.90;2.70;100298.00;;;;5099081;28;20321;-74
2021/12/18 07:38:51;;;;;;;1.00;1.00;;;3.60;77.90;2.70;100296.00;;;;5117126;28;20288;-73
2021/12/18 07:41:18;;;;;;;1.80;1.70;;;3.60;78.20;2.80;100295.00;;;;5116937;28;20216;-73
2021/12/18 07:43:45;;;;;;;1.00;1.00;;;3.60;78.20;2.90;100298.00;;;;5099045;28;20226;-73
2021/12/18 07:46:12;;;;;;;1.90;1.33;;;3.70;78.00;2.80;100297.00;;;;5116804;28;20565;-74
2021/12/18 07:48:40;;;;;;;1.57;1.47;;;3.70;77.70;2.90;100298.00;;;;5116795;28;20239;-74
2021/12/18 07:51:07;;;;;;;1.20;1.20;;;3.70;77.70;2.90;100306.00;;;;5098734;28;20794;-74
2021/12/18 07:53:34;;;;;;;1.83;1.73;;;3.70;77.80;2.90;100294.00;;;;5116628;28;20214;-74
2021/12/18 07:56:01;;;;;;;1.77;1.70;;;3.80;77.70;2.90;100303.00;;;;5116615;28;20589;-73
2021/12/18 07:58:28;;;;;;;1.43;1.33;;;3.80;77.60;2.90;100292.00;;;;5116830;28;20667;-74
2021/12/18 08:00:55;;;;;;;2.07;1.97;;;3.80;77.40;2.90;100290.00;;;;5116574;28;20236;-74
2021/12/18 08:03:21;;;;;;;2.00;1.67;;;3.80;77.50;2.90;100287.00;;;;5116776;28;20194;-73
2021/12/18 08:05:48;;;;;;;1.13;1.13;;;3.80;77.60;2.90;100292.00;;;;5116624;28;20218;-72
2021/12/18 08:08:15;;;;;;;1.10;1.10;;;3.80;77.40;2.90;100282.00;;;;5116272;28;20286;-73
2021/12/18 08:10:42;;;;;;;1.23;1.23;;;3.80;77.30;2.90;100288.00;;;;5116303;28;20197;-73
2021/12/18 08:13:08;;;;;;;2.47;1.57;;;3.80;77.30;3.00;100284.00;;;;5116072;28;20228;-73
2021/12/18 08:15:37;;;;;;;0.90;0.90;;;3.80;77.20;3.00;100289.00;;;;5116130;28;20342;-73
2021/12/18 08:18:07;;;;;;;1.87;1.63;;;3.80;77.20;2.90;100293.00;;;;5116231;28;20193;-73
2021/12/18 08:20:35;;;;;;;1.77;1.67;;;3.80;77.30;2.90;100292.00;;;;5116086;28;20267;-72
2021/12/18 08:23:02;;;;;;;1.77;1.67;;;3.80;77.60;3.00;100294.00;;;;5116106;28;20190;-73
2021/12/18 08:25:29;;;;;;;1.60;1.50;;;3.90;77.50;3.10;100292.00;;;;5116160;28;20226;-73
2021/12/18 08:27:56;;;;;;;1.87;1.67;;;3.90;77.50;3.10;100297.00;;;;5116159;28;20227;-73
2021/12/18 08:30:25;;;;;;;1.43;1.43;;;3.90;76.90;3.10;100286.00;;;;5116030;28;20212;-71
2021/12/18 08:32:53;;;;;;;1.33;1.33;;;4.00;76.60;3.00;100284.00;;;;5098296;28;20678;-74
2021/12/18 08:35:19;;;;;;;3.83;1.97;;;3.90;76.40;3.00;100298.00;;;;5115895;28;20288;-72
2021/12/18 08:37:46;;;;;;;1.73;1.63;;;3.90;77.50;3.10;100291.00;;;;5116035;28;20278;-74
2021/12/18 08:40:15;;;;;;;1.10;1.10;;;3.90;77.70;3.20;100283.00;;;;5116041;28;20209;-72
2021/12/18 08:42:41;;;;;;;0.90;0.90;;;4.00;76.60;3.20;100288.00;;;;5115947;28;20206;-72
2021/12/18 08:45:09;;;;;;;1.93;1.83;;;4.00;76.20;3.20;100290.00;;;;5115581;28;20229;-73
2021/12/18 08:47:39;;;;;;;2.53;1.37;;;4.00;76.30;3.10;100273.00;;;;5115899;28;20175;-74
2021/12/18 08:50:13;;;;;;;1.50;1.40;;;4.00;76.50;3.30;100263.00;;;;5115623;28;20216;-73
2021/12/18 08:52:40;;;;;;;2.50;2.23;;;4.10;76.80;3.30;100284.00;;;;5115449;28;20691;-73
2021/12/18 08:55:08;;;;;;;1.70;1.63;;;4.10;75.90;3.20;100282.00;;;;5115630;28;20263;-72
2021/12/18 08:57:35;;;;;;;2.23;2.13;;;4.00;76.10;3.20;100288.00;;;;5115529;28;20273;-71
2021/12/18 09:00:03;;;;;;;6.33;2.00;;;4.10;76.70;3.30;100293.00;;;;5115506;28;20701;-72
2021/12/18 09:02:30;;;;;;;1.40;1.33;;;4.20;76.80;3.40;100278.00;;;;5097436;28;20229;-72
2021/12/18 09:04:56;;;;;;;0.70;0.70;;;4.20;76.60;3.50;100280.00;;;;5115465;28;20206;-72
2021/12/18 09:07:27;;;;;;;1.03;1.03;;;4.20;76.50;3.50;100265.00;;;;5115345;28;20366;-71
2021/12/18 09:09:53;;;;;;;1.60;1.57;;;4.30;76.30;3.60;100286.00;;;;5115493;28;20198;-72
2021/12/18 09:12:20;;;;;;;2.17;1.87;;;4.30;76.40;3.60;100280.00;;;;5115285;28;20278;-72
2021/12/18 09:14:46;;;;;;;1.07;1.07;;;4.40;75.50;3.50;100280.00;;;;5097440;28;20288;-72
2021/12/18 09:17:13;;;;;;;7.20;1.67;;;4.40;75.70;3.60;100269.00;;;;5115404;28;20663;-72
2021/12/18 09:19:39;;;;;;;1.47;1.37;;;4.40;74.90;3.60;100271.00;;;;5115249;28;20304;-72
2021/12/18 09:22:09;;;;;;;3.10;2.07;;;4.40;75.20;3.60;100273.00;;;;5115363;28;20193;-72
2021/12/18 09:24:36;;;;;;;1.83;1.70;;;4.40;75.10;3.70;100266.00;;;;5115191;28;20202;-72
2021/12/18 09:27:04;;;;;;;1.30;1.20;;;4.50;75.70;3.70;100272.00;;;;5115153;28;20201;-72
2021/12/18 09:29:31;;;;;;;1.37;1.30;;;4.50;75.30;3.60;100266.00;;;;5115103;28;20213;-71
2021/12/18 09:31:58;;;;;;;2.00;1.90;;;4.50;75.40;3.80;100271.00;;;;5114955;28;20226;-72
2021/12/18 09:34:28;;;;;;;1.87;1.77;;;4.60;75.60;3.70;100274.00;;;;5115065;28;20209;-72
2021/12/18 09:36:55;;;;;;;1.00;1.00;;;4.60;75.00;3.80;100273.00;;;;5114714;28;20226;-72
2021/12/18 09:39:24;;;;;;;1.53;1.47;;;4.60;75.20;3.80;100274.00;;;;5114969;28;20641;-72
2021/12/18 09:41:54;;;;;;;0.97;0.97;;;4.60;75.20;3.80;100276.00;;;;5114812;28;20228;-71
2021/12/18 09:44:24;;;;;;;1.50;1.40;;;4.60;75.40;3.70;100255.00;;;;5115012;28;20205;-73
2021/12/18 09:46:54;;;;;;;0.80;0.80;;;4.60;75.40;3.70;100272.00;;;;5115091;28;20648;-71
2021/12/18 09:49:21;;;;;;;1.23;1.13;;;4.60;75.60;3.90;100278.00;;;;5113906;28;20225;-72
2021/12/18 09:51:49;;;;;;;1.53;1.43;;;4.60;75.50;4.00;100263.00;;;;5096842;28;20350;-71
2021/12/18 09:54:21;;;;;;;1.33;1.33;;;4.70;75.60;4.00;100262.00;;;;5114707;28;20233;-71
2021/12/18 09:56:47;;;;;;;1.53;1.47;;;4.70;74.80;4.00;100236.00;;;;5114063;28;20262;-70
2021/12/18 09:59:15;;;;;;;1.63;1.53;;;4.70;74.40;4.00;100256.00;;;;5114768;28;20218;-71
2021/12/18 10:01:41;;;;;;;0.87;0.87;;;4.70;74.40;4.00;100206.00;;;;5114564;28;20544;-70
2021/12/18 10:04:26;;;;;;;1.47;1.43;;;4.80;74.60;4.10;100254.00;;;;5114660;28;20265;-73
2021/12/18 10:06:53;;;;;;;2.87;2.07;;;4.80;74.60;4.10;100253.00;;;;5114569;28;20222;-74
2021/12/18 10:09:36;;;;;;;2.03;1.93;;;4.80;74.20;4.10;100241.00;;;;5114664;28;20233;-72
2021/12/18 10:12:14;;;;;;;1.10;1.10;;;4.80;74.00;3.90;100240.00;;;;5114384;28;20725;-73
2021/12/18 10:14:46;;;;;;;3.00;1.53;;;4.80;74.10;4.00;100243.00;;;;5114521;28;20250;-71
2021/12/18 10:17:26;;;;;;;1.47;1.37;;;4.80;74.40;4.00;100239.00;;;;5096604;28;20205;-71
2021/12/18 10:19:55;;;;;;;0.80;0.80;;;4.80;74.50;4.00;100206.00;;;;5096748;28;20606;-71
2021/12/18 10:22:22;;;;;;;1.40;1.20;;;4.80;74.50;3.90;100215.00;;;;5114315;28;20221;-72
2021/12/18 10:25:05;;;;;;;1.17;1.10;;;4.80;74.40;3.90;100225.00;;;;5113484;28;20275;-71
2021/12/18 10:27:33;;;;;;;0.97;0.97;;;4.70;74.80;3.80;100227.00;;;;5114427;28;20190;-73
2021/12/18 10:30:16;;;;;;;1.53;1.43;;;4.70;74.60;3.90;100223.00;;;;5114260;28;20704;-72
2021/12/18 10:33:01;;;;;;;1.10;1.10;;;4.70;74.10;4.00;100233.00;;;;5114271;28;20308;-71
2021/12/18 10:35:40;;;;;;;1.60;1.50;;;4.80;74.00;3.90;100246.00;;;;5096182;28;20225;-72
2021/12/18 10:38:07;;;;;;;2.50;1.53;;;4.80;73.70;3.80;100196.00;;;;5096431;28;20292;-73
2021/12/18 10:40:46;;;;;;;1.67;1.57;;;4.60;73.50;3.70;100229.00;;;;5114191;28;20221;-76
2021/12/18 10:43:15;;;;;;;1.07;1.07;;;4.70;74.30;3.80;100175.00;;;;5096534;28;20285;-75
2021/12/18 10:45:43;;;;;;;0.80;0.80;;;4.60;74.20;3.90;100201.00;;;;5096396;28;20251;-74
2021/12/18 10:48:15;;;;;;;2.00;1.90;;;4.70;74.60;3.90;100194.00;;;;5113236;28;20233;-75
2021/12/18 10:50:45;;;;;;;0.93;0.93;;;4.70;74.20;4.00;100202.00;;;;5113215;28;20210;-73
2021/12/18 10:53:15;;;;;;;1.50;1.40;;;4.80;73.90;4.10;100226.00;;;;5096046;28;20237;-72
2021/12/18 10:55:50;;;;;;;0.87;0.87;;;4.80;73.70;4.10;100213.00;;;;5114042;28;20621;-73
2021/12/18 10:58:24;;;;;;;2.30;1.13;;;4.80;73.80;4.10;100213.00;;;;5114001;28;20748;-72
2021/12/18 11:00:58;;;;;;;1.67;1.57;;;4.90;73.60;4.20;100217.00;;;;5113983;28;20280;-75
2021/12/18 11:03:31;;;;;;;1.87;1.77;;;4.90;73.90;4.10;100156.00;;;;5113930;28;20284;-73
2021/12/18 11:06:13;;;;;;;1.10;1.10;;;4.90;73.70;4.20;100206.00;;;;5095975;28;20312;-74
2021/12/18 11:09:04;;;;;;;1.57;1.40;;;4.90;74.10;4.20;100134.00;;;;5096268;28;20201;-73
2021/12/18 11:14:33;;;;;;;1.93;1.73;;;5.00;73.80;4.20;100168.00;;;;5117470;28;20202;-73
2021/12/18 11:17:04;;;;;;;1.23;1.23;;;5.00;73.90;4.10;100189.00;;;;5099440;28;20268;-73
2021/12/18 11:19:33;;;;;;;4.83;1.67;;;4.90;73.40;4.00;100184.00;;;;5117238;28;20262;-70
2021/12/18 11:22:04;;;;;;;1.87;1.77;;;4.90;72.90;3.90;100192.00;;;;5117277;28;20269;-72
2021/12/18 11:24:35;;;;;;;3.23;1.50;;;4.80;73.20;3.90;100188.00;;;;5117461;28;20555;-75
2021/12/18 11:27:07;;;;;;;1.67;1.57;;;4.80;73.10;3.80;100181.00;;;;5117160;28;20189;-75
2021/12/18 11:29:40;;;;;;;1.43;1.33;;;4.70;73.50;3.80;100173.00;;;;5099292;28;20590;-73
2021/12/18 11:32:12;;;;;;;1.80;1.67;;;4.70;73.80;3.90;100170.00;;;;5099346;28;20194;-72
2021/12/18 11:34:39;;;;;;;1.43;1.40;;;4.70;74.20;3.90;100175.00;;;;5117227;28;20217;-71
2021/12/18 11:37:09;;;;;;;1.47;1.47;;;4.70;74.50;4.00;100170.00;;;;5117062;28;20197;-72
2021/12/18 11:39:41;;;;;;;2.10;1.83;;;4.70;74.60;4.00;100165.00;;;;5117051;28;20230;-72
2021/12/18 11:42:09;;;;;;;1.27;1.27;;;4.70;74.60;4.00;100159.00;;;;5116845;28;20279;-73